SKCL/CLO METAR and TAF weather

Enter ICAO airport designator
Station Type Date Time Source
SKCL METAR 2019/06/20 07:00 UTC NOAA

SKCL 200700Z 00000KT 8000 VCFG FEW040 BKN120 20/19 A2997 NOSIG


Station Type Date Time Source
SKCL Decoded METAR 2019/06/20 07:00 UTC NOAA

Cali / Alfonso Bonillaaragon, Colombia (SKCL) 03-33N 076-23W 969M
Jun 20, 2019 - 03:00 AM EDT / 2019.06.20 0700 UTC
Wind: Calm:0
Visibility: 4 mile(s):0
Sky conditions: mostly cloudy
Weather: fog in the vicinity
Temperature: 68 F (20 C)
Dew Point: 66 F (19 C)
Relative Humidity: 93%
Pressure (altimeter): 29.97 in. Hg (1014 hPa)
ob: SKCL 200700Z 00000KT 8000 VCFG FEW040 BKN120 20/19 A2997 NOSIG
cycle: 7

Station Type Date Time Source
SKCL TAF 2019/06/20 06:45 UTC NOAA

TAF SKCL 200430Z 2006/2106 05004KT 9999 SCT020 SCT120
TEMPO 2011/2016 16006KT TX30/2019Z TN19/2011Z

Example: see airport list